sensor_id;sensor_type;location;lat;lon;timestamp;P1;durP1;ratioP1;P2;durP2;ratioP2
8552;SDS011;73833;51.014;16.950;2023-11-19T00:00:43;14.00;;;10.07;;
8552;SDS011;73833;51.014;16.950;2023-11-19T00:03:08;14.85;;;10.05;;
8552;SDS011;73833;51.014;16.950;2023-11-19T00:05:34;14.70;;;9.77;;
8552;SDS011;73833;51.014;16.950;2023-11-19T00:07:59;15.25;;;9.60;;
8552;SDS011;73833;51.014;16.950;2023-11-19T00:10:24;12.80;;;10.02;;
8552;SDS011;73833;51.014;16.950;2023-11-19T00:12:50;14.32;;;9.40;;
8552;SDS011;73833;51.014;16.950;2023-11-19T00:15:15;12.55;;;10.23;;
8552;SDS011;73833;51.014;16.950;2023-11-19T00:17:44;17.55;;;9.25;;
8552;SDS011;73833;51.014;16.950;2023-11-19T00:20:16;11.18;;;8.85;;
8552;SDS011;73833;51.014;16.950;2023-11-19T00:22:41;13.20;;;9.57;;
8552;SDS011;73833;51.014;16.950;2023-11-19T00:25:07;13.18;;;9.35;;
8552;SDS011;73833;51.014;16.950;2023-11-19T00:27:32;11.75;;;8.68;;
8552;SDS011;73833;51.014;16.950;2023-11-19T00:29:58;15.57;;;9.13;;
8552;SDS011;73833;51.014;16.950;2023-11-19T00:32:23;15.63;;;9.70;;
8552;SDS011;73833;51.014;16.950;2023-11-19T00:34:48;16.90;;;9.57;;
8552;SDS011;73833;51.014;16.950;2023-11-19T00:37:14;13.73;;;9.57;;
8552;SDS011;73833;51.014;16.950;2023-11-19T00:39:40;13.10;;;9.02;;
8552;SDS011;73833;51.014;16.950;2023-11-19T00:42:05;13.00;;;9.07;;
8552;SDS011;73833;51.014;16.950;2023-11-19T00:44:30;11.30;;;8.73;;
8552;SDS011;73833;51.014;16.950;2023-11-19T00:46:55;10.82;;;9.18;;
8552;SDS011;73833;51.014;16.950;2023-11-19T00:49:21;15.88;;;9.98;;
8552;SDS011;73833;51.014;16.950;2023-11-19T00:51:46;16.73;;;9.32;;
8552;SDS011;73833;51.014;16.950;2023-11-19T00:54:11;12.05;;;9.52;;
8552;SDS011;73833;51.014;16.950;2023-11-19T00:56:36;13.18;;;9.73;;
8552;SDS011;73833;51.014;16.950;2023-11-19T00:59:02;11.23;;;8.95;;
8552;SDS011;73833;51.014;16.950;2023-11-19T01:01:28;12.70;;;9.15;;
8552;SDS011;73833;51.014;16.950;2023-11-19T01:03:54;15.18;;;10.00;;
8552;SDS011;73833;51.014;16.950;2023-11-19T01:06:26;11.20;;;9.20;;
8552;SDS011;73833;51.014;16.950;2023-11-19T01:08:51;10.82;;;9.18;;
8552;SDS011;73833;51.014;16.950;2023-11-19T01:11:21;13.18;;;10.00;;
8552;SDS011;73833;51.014;16.950;2023-11-19T01:13:46;15.13;;;9.88;;
8552;SDS011;73833;51.014;16.950;2023-11-19T01:16:11;11.40;;;9.48;;
8552;SDS011;73833;51.014;16.950;2023-11-19T01:18:38;11.57;;;9.23;;
8552;SDS011;73833;51.014;16.950;2023-11-19T01:21:03;13.90;;;10.15;;
8552;SDS011;73833;51.014;16.950;2023-11-19T01:23:28;11.43;;;9.32;;
8552;SDS011;73833;51.014;16.950;2023-11-19T01:25:53;13.43;;;9.70;;
8552;SDS011;73833;51.014;16.950;2023-11-19T01:28:19;11.07;;;9.07;;
8552;SDS011;73833;51.014;16.950;2023-11-19T01:30:44;12.68;;;8.93;;
8552;SDS011;73833;51.014;16.950;2023-11-19T01:33:09;10.93;;;9.07;;
8552;SDS011;73833;51.014;16.950;2023-11-19T01:35:34;11.40;;;9.35;;
8552;SDS011;73833;51.014;16.950;2023-11-19T01:37:59;12.52;;;9.57;;
8552;SDS011;73833;51.014;16.950;2023-11-19T01:40:25;12.13;;;9.20;;
8552;SDS011;73833;51.014;16.950;2023-11-19T01:42:50;10.88;;;8.95;;
8552;SDS011;73833;51.014;16.950;2023-11-19T01:45:21;10.75;;;9.40;;
8552;SDS011;73833;51.014;16.950;2023-11-19T01:47:47;13.55;;;9.20;;
8552;SDS011;73833;51.014;16.950;2023-11-19T01:50:12;11.13;;;8.98;;
8552;SDS011;73833;51.014;16.950;2023-11-19T01:52:37;12.18;;;9.73;;
8552;SDS011;73833;51.014;16.950;2023-11-19T01:55:03;11.50;;;9.25;;
8552;SDS011;73833;51.014;16.950;2023-11-19T01:57:29;12.93;;;9.70;;
8552;SDS011;73833;51.014;16.950;2023-11-19T01:59:54;11.65;;;10.00;;
8552;SDS011;73833;51.014;16.950;2023-11-19T02:02:20;10.05;;;8.82;;
8552;SDS011;73833;51.014;16.950;2023-11-19T02:04:46;10.55;;;9.45;;
8552;SDS011;73833;51.014;16.950;2023-11-19T02:07:13;10.95;;;8.52;;
8552;SDS011;73833;51.014;16.950;2023-11-19T02:09:41;12.85;;;9.45;;
8552;SDS011;73833;51.014;16.950;2023-11-19T02:12:07;11.60;;;9.52;;
8552;SDS011;73833;51.014;16.950;2023-11-19T02:14:32;10.65;;;9.13;;
8552;SDS011;73833;51.014;16.950;2023-11-19T02:16:57;12.85;;;9.50;;
8552;SDS011;73833;51.014;16.950;2023-11-19T02:19:23;10.15;;;8.77;;
8552;SDS011;73833;51.014;16.950;2023-11-19T02:21:48;10.18;;;8.82;;
8552;SDS011;73833;51.014;16.950;2023-11-19T02:24:14;11.52;;;9.10;;
8552;SDS011;73833;51.014;16.950;2023-11-19T02:26:42;11.10;;;8.40;;
8552;SDS011;73833;51.014;16.950;2023-11-19T02:29:09;11.60;;;8.93;;
8552;SDS011;73833;51.014;16.950;2023-11-19T02:31:35;10.88;;;9.50;;
8552;SDS011;73833;51.014;16.950;2023-11-19T02:34:00;12.60;;;9.30;;
8552;SDS011;73833;51.014;16.950;2023-11-19T02:36:27;12.27;;;9.18;;
8552;SDS011;73833;51.014;16.950;2023-11-19T02:38:52;13.27;;;9.65;;
8552;SDS011;73833;51.014;16.950;2023-11-19T02:41:18;10.40;;;8.70;;
8552;SDS011;73833;51.014;16.950;2023-11-19T02:43:43;10.63;;;8.70;;
8552;SDS011;73833;51.014;16.950;2023-11-19T02:46:08;10.60;;;8.48;;
8552;SDS011;73833;51.014;16.950;2023-11-19T02:48:34;11.27;;;8.70;;
8552;SDS011;73833;51.014;16.950;2023-11-19T02:51:02;11.35;;;8.70;;
8552;SDS011;73833;51.014;16.950;2023-11-19T02:53:28;11.52;;;9.18;;
8552;SDS011;73833;51.014;16.950;2023-11-19T02:55:54;12.65;;;9.38;;
8552;SDS011;73833;51.014;16.950;2023-11-19T02:58:25;11.18;;;9.00;;
8552;SDS011;73833;51.014;16.950;2023-11-19T03:00:53;12.95;;;9.20;;
8552;SDS011;73833;51.014;16.950;2023-11-19T03:03:27;9.68;;;8.60;;
8552;SDS011;73833;51.014;16.950;2023-11-19T03:06:04;10.88;;;8.82;;
8552;SDS011;73833;51.014;16.950;2023-11-19T03:08:31;12.13;;;9.02;;
8552;SDS011;73833;51.014;16.950;2023-11-19T03:10:56;10.00;;;8.93;;
8552;SDS011;73833;51.014;16.950;2023-11-19T03:13:21;10.30;;;8.57;;
8552;SDS011;73833;51.014;16.950;2023-11-19T03:15:47;11.13;;;9.00;;
8552;SDS011;73833;51.014;16.950;2023-11-19T03:18:12;12.70;;;8.82;;
8552;SDS011;73833;51.014;16.950;2023-11-19T03:20:37;12.55;;;9.77;;
8552;SDS011;73833;51.014;16.950;2023-11-19T03:23:02;10.55;;;8.88;;
8552;SDS011;73833;51.014;16.950;2023-11-19T03:25:28;10.15;;;8.90;;
8552;SDS011;73833;51.014;16.950;2023-11-19T03:28:01;9.95;;;8.93;;
8552;SDS011;73833;51.014;16.950;2023-11-19T03:30:27;12.23;;;9.18;;
8552;SDS011;73833;51.014;16.950;2023-11-19T03:32:53;10.18;;;8.32;;
8552;SDS011;73833;51.014;16.950;2023-11-19T03:35:18;10.13;;;8.60;;
8552;SDS011;73833;51.014;16.950;2023-11-19T03:37:44;11.45;;;8.95;;
8552;SDS011;73833;51.014;16.950;2023-11-19T03:40:09;10.68;;;9.07;;
8552;SDS011;73833;51.014;16.950;2023-11-19T03:42:35;9.40;;;8.43;;
8552;SDS011;73833;51.014;16.950;2023-11-19T03:45:00;11.77;;;8.77;;
8552;SDS011;73833;51.014;16.950;2023-11-19T03:47:25;12.10;;;9.60;;
8552;SDS011;73833;51.014;16.950;2023-11-19T03:49:51;11.77;;;8.38;;
8552;SDS011;73833;51.014;16.950;2023-11-19T03:52:17;11.38;;;8.60;;
8552;SDS011;73833;51.014;16.950;2023-11-19T03:54:43;11.68;;;9.25;;
8552;SDS011;73833;51.014;16.950;2023-11-19T03:57:08;9.45;;;8.45;;
8552;SDS011;73833;51.014;16.950;2023-11-19T03:59:35;9.93;;;8.32;;
8552;SDS011;73833;51.014;16.950;2023-11-19T04:02:00;10.45;;;8.63;;
8552;SDS011;73833;51.014;16.950;2023-11-19T04:04:27;12.07;;;8.95;;
8552;SDS011;73833;51.014;16.950;2023-11-19T04:06:53;9.48;;;8.48;;
8552;SDS011;73833;51.014;16.950;2023-11-19T04:09:18;9.95;;;8.80;;
8552;SDS011;73833;51.014;16.950;2023-11-19T04:11:43;10.75;;;8.95;;
8552;SDS011;73833;51.014;16.950;2023-11-19T04:14:08;12.30;;;8.93;;
8552;SDS011;73833;51.014;16.950;2023-11-19T04:16:35;10.02;;;8.73;;
8552;SDS011;73833;51.014;16.950;2023-11-19T04:19:00;11.07;;;8.73;;
8552;SDS011;73833;51.014;16.950;2023-11-19T04:21:26;11.40;;;8.90;;
8552;SDS011;73833;51.014;16.950;2023-11-19T04:23:51;11.27;;;9.15;;
8552;SDS011;73833;51.014;16.950;2023-11-19T04:26:17;10.25;;;8.60;;
8552;SDS011;73833;51.014;16.950;2023-11-19T04:28:42;9.25;;;8.32;;
8552;SDS011;73833;51.014;16.950;2023-11-19T04:31:07;9.70;;;8.65;;
8552;SDS011;73833;51.014;16.950;2023-11-19T04:33:34;9.32;;;8.32;;
8552;SDS011;73833;51.014;16.950;2023-11-19T04:35:59;9.15;;;7.90;;
8552;SDS011;73833;51.014;16.950;2023-11-19T04:38:24;10.30;;;8.70;;
8552;SDS011;73833;51.014;16.950;2023-11-19T04:40:51;10.18;;;8.43;;
8552;SDS011;73833;51.014;16.950;2023-11-19T04:43:17;9.82;;;8.27;;
8552;SDS011;73833;51.014;16.950;2023-11-19T04:45:42;9.98;;;8.23;;
8552;SDS011;73833;51.014;16.950;2023-11-19T04:48:07;10.48;;;8.82;;
8552;SDS011;73833;51.014;16.950;2023-11-19T04:50:34;9.25;;;8.10;;
8552;SDS011;73833;51.014;16.950;2023-11-19T04:52:59;9.25;;;8.25;;
8552;SDS011;73833;51.014;16.950;2023-11-19T04:55:24;9.68;;;8.20;;
8552;SDS011;73833;51.014;16.950;2023-11-19T04:57:50;9.68;;;8.13;;
8552;SDS011;73833;51.014;16.950;2023-11-19T05:00:15;10.18;;;8.35;;
8552;SDS011;73833;51.014;16.950;2023-11-19T05:02:40;10.20;;;7.65;;
8552;SDS011;73833;51.014;16.950;2023-11-19T05:05:05;8.93;;;7.93;;
8552;SDS011;73833;51.014;16.950;2023-11-19T05:07:31;8.98;;;7.78;;
8552;SDS011;73833;51.014;16.950;2023-11-19T05:09:56;8.80;;;7.63;;
8552;SDS011;73833;51.014;16.950;2023-11-19T05:12:22;9.30;;;7.88;;
8552;SDS011;73833;51.014;16.950;2023-11-19T05:14:48;8.40;;;7.50;;
8552;SDS011;73833;51.014;16.950;2023-11-19T05:17:15;9.38;;;8.00;;
8552;SDS011;73833;51.014;16.950;2023-11-19T05:19:43;9.38;;;8.20;;
8552;SDS011;73833;51.014;16.950;2023-11-19T05:22:08;9.65;;;7.72;;
8552;SDS011;73833;51.014;16.950;2023-11-19T05:24:33;9.75;;;7.80;;
8552;SDS011;73833;51.014;16.950;2023-11-19T05:26:59;8.30;;;7.47;;
8552;SDS011;73833;51.014;16.950;2023-11-19T05:29:24;8.63;;;7.72;;
8552;SDS011;73833;51.014;16.950;2023-11-19T05:31:49;8.52;;;7.63;;
8552;SDS011;73833;51.014;16.950;2023-11-19T05:34:15;12.05;;;8.18;;
8552;SDS011;73833;51.014;16.950;2023-11-19T05:36:40;10.27;;;8.52;;
8552;SDS011;73833;51.014;16.950;2023-11-19T05:39:05;8.95;;;7.70;;
8552;SDS011;73833;51.014;16.950;2023-11-19T05:41:30;8.43;;;7.22;;
8552;SDS011;73833;51.014;16.950;2023-11-19T05:43:56;8.15;;;6.72;;
8552;SDS011;73833;51.014;16.950;2023-11-19T05:46:21;8.27;;;7.47;;
8552;SDS011;73833;51.014;16.950;2023-11-19T05:48:46;8.65;;;7.72;;
8552;SDS011;73833;51.014;16.950;2023-11-19T05:51:12;8.13;;;7.30;;
8552;SDS011;73833;51.014;16.950;2023-11-19T05:53:37;9.65;;;7.80;;
8552;SDS011;73833;51.014;16.950;2023-11-19T05:56:03;9.38;;;7.95;;
8552;SDS011;73833;51.014;16.950;2023-11-19T05:58:29;8.77;;;7.30;;
8552;SDS011;73833;51.014;16.950;2023-11-19T06:00:55;8.70;;;7.13;;
8552;SDS011;73833;51.014;16.950;2023-11-19T06:03:21;8.50;;;7.65;;
8552;SDS011;73833;51.014;16.950;2023-11-19T06:05:47;8.60;;;7.80;;
8552;SDS011;73833;51.014;16.950;2023-11-19T06:08:12;9.07;;;7.80;;
8552;SDS011;73833;51.014;16.950;2023-11-19T06:10:41;8.20;;;7.38;;
8552;SDS011;73833;51.014;16.950;2023-11-19T06:13:06;8.00;;;7.22;;
8552;SDS011;73833;51.014;16.950;2023-11-19T06:15:31;9.70;;;7.60;;
8552;SDS011;73833;51.014;16.950;2023-11-19T06:17:58;8.45;;;7.63;;
8552;SDS011;73833;51.014;16.950;2023-11-19T06:20:24;8.75;;;7.50;;
8552;SDS011;73833;51.014;16.950;2023-11-19T06:22:50;9.32;;;7.00;;
8552;SDS011;73833;51.014;16.950;2023-11-19T06:25:15;8.50;;;7.60;;
8552;SDS011;73833;51.014;16.950;2023-11-19T06:27:41;9.23;;;7.78;;
8552;SDS011;73833;51.014;16.950;2023-11-19T06:30:06;8.32;;;7.38;;
8552;SDS011;73833;51.014;16.950;2023-11-19T06:32:32;7.78;;;7.00;;
8552;SDS011;73833;51.014;16.950;2023-11-19T06:34:57;7.68;;;6.88;;
8552;SDS011;73833;51.014;16.950;2023-11-19T06:37:23;8.95;;;7.10;;
8552;SDS011;73833;51.014;16.950;2023-11-19T06:39:48;11.02;;;7.85;;
8552;SDS011;73833;51.014;16.950;2023-11-19T06:42:14;9.00;;;7.65;;
8552;SDS011;73833;51.014;16.950;2023-11-19T06:44:39;9.43;;;7.15;;
8552;SDS011;73833;51.014;16.950;2023-11-19T06:47:04;10.25;;;8.25;;
8552;SDS011;73833;51.014;16.950;2023-11-19T06:49:29;11.23;;;7.53;;
8552;SDS011;73833;51.014;16.950;2023-11-19T06:51:55;9.57;;;7.65;;
8552;SDS011;73833;51.014;16.950;2023-11-19T06:54:20;10.85;;;7.88;;
8552;SDS011;73833;51.014;16.950;2023-11-19T06:56:46;10.23;;;8.02;;
8552;SDS011;73833;51.014;16.950;2023-11-19T06:59:11;22.55;;;9.75;;
8552;SDS011;73833;51.014;16.950;2023-11-19T07:01:36;17.83;;;8.43;;
8552;SDS011;73833;51.014;16.950;2023-11-19T07:04:02;14.90;;;9.60;;
8552;SDS011;73833;51.014;16.950;2023-11-19T07:06:33;22.45;;;12.48;;
8552;SDS011;73833;51.014;16.950;2023-11-19T07:08:58;30.58;;;14.00;;
8552;SDS011;73833;51.014;16.950;2023-11-19T07:11:24;39.85;;;17.83;;
8552;SDS011;73833;51.014;16.950;2023-11-19T07:13:49;56.20;;;22.73;;
8552;SDS011;73833;51.014;16.950;2023-11-19T07:16:15;50.75;;;22.45;;
8552;SDS011;73833;51.014;16.950;2023-11-19T07:18:40;66.32;;;27.85;;
8552;SDS011;73833;51.014;16.950;2023-11-19T07:21:06;69.07;;;31.35;;
8552;SDS011;73833;51.014;16.950;2023-11-19T07:23:35;76.85;;;32.47;;
8552;SDS011;73833;51.014;16.950;2023-11-19T07:26:00;93.25;;;34.70;;
8552;SDS011;73833;51.014;16.950;2023-11-19T07:28:26;83.80;;;34.53;;
8552;SDS011;73833;51.014;16.950;2023-11-19T07:30:53;88.43;;;36.85;;
8552;SDS011;73833;51.014;16.950;2023-11-19T07:33:21;81.20;;;37.28;;
8552;SDS011;73833;51.014;16.950;2023-11-19T07:35:46;83.80;;;37.85;;
8552;SDS011;73833;51.014;16.950;2023-11-19T07:38:11;95.63;;;39.03;;
8552;SDS011;73833;51.014;16.950;2023-11-19T07:40:36;92.57;;;39.72;;
8552;SDS011;73833;51.014;16.950;2023-11-19T07:43:02;86.15;;;39.28;;
8552;SDS011;73833;51.014;16.950;2023-11-19T07:45:27;95.93;;;40.13;;
8552;SDS011;73833;51.014;16.950;2023-11-19T07:47:52;86.72;;;38.95;;
8552;SDS011;73833;51.014;16.950;2023-11-19T07:50:17;80.65;;;38.08;;
8552;SDS011;73833;51.014;16.950;2023-11-19T07:52:45;81.30;;;38.65;;
8552;SDS011;73833;51.014;16.950;2023-11-19T07:55:10;88.15;;;37.55;;
8552;SDS011;73833;51.014;16.950;2023-11-19T07:57:35;89.65;;;37.17;;
8552;SDS011;73833;51.014;16.950;2023-11-19T08:00:01;76.18;;;36.28;;
8552;SDS011;73833;51.014;16.950;2023-11-19T08:02:28;78.60;;;36.65;;
8552;SDS011;73833;51.014;16.950;2023-11-19T08:04:53;76.18;;;36.72;;
8552;SDS011;73833;51.014;16.950;2023-11-19T08:07:20;83.03;;;37.78;;
8552;SDS011;73833;51.014;16.950;2023-11-19T08:09:45;76.35;;;35.38;;
8552;SDS011;73833;51.014;16.950;2023-11-19T08:12:11;83.80;;;36.65;;
8552;SDS011;73833;51.014;16.950;2023-11-19T08:14:36;77.07;;;34.55;;
8552;SDS011;73833;51.014;16.950;2023-11-19T08:17:02;72.43;;;34.80;;
8552;SDS011;73833;51.014;16.950;2023-11-19T08:19:27;70.05;;;35.33;;
8552;SDS011;73833;51.014;16.950;2023-11-19T08:21:52;74.95;;;34.03;;
8552;SDS011;73833;51.014;16.950;2023-11-19T08:24:18;78.25;;;33.95;;
8552;SDS011;73833;51.014;16.950;2023-11-19T08:26:43;74.97;;;33.55;;
8552;SDS011;73833;51.014;16.950;2023-11-19T08:29:09;69.45;;;32.47;;
8552;SDS011;73833;51.014;16.950;2023-11-19T08:31:34;76.10;;;34.22;;
8552;SDS011;73833;51.014;16.950;2023-11-19T08:34:00;64.93;;;30.73;;
8552;SDS011;73833;51.014;16.950;2023-11-19T08:36:25;72.30;;;32.20;;
8552;SDS011;73833;51.014;16.950;2023-11-19T08:38:50;64.53;;;31.65;;
8552;SDS011;73833;51.014;16.950;2023-11-19T08:41:16;68.55;;;31.52;;
8552;SDS011;73833;51.014;16.950;2023-11-19T08:43:42;63.35;;;30.60;;
8552;SDS011;73833;51.014;16.950;2023-11-19T08:46:11;65.88;;;30.52;;
8552;SDS011;73833;51.014;16.950;2023-11-19T08:48:36;71.50;;;30.73;;
8552;SDS011;73833;51.014;16.950;2023-11-19T08:51:02;62.30;;;30.27;;
8552;SDS011;73833;51.014;16.950;2023-11-19T08:53:27;64.18;;;29.17;;
8552;SDS011;73833;51.014;16.950;2023-11-19T08:55:52;54.22;;;28.13;;
8552;SDS011;73833;51.014;16.950;2023-11-19T08:58:17;57.58;;;28.67;;
8552;SDS011;73833;51.014;16.950;2023-11-19T09:00:43;60.88;;;27.88;;
8552;SDS011;73833;51.014;16.950;2023-11-19T09:03:08;61.45;;;28.55;;
8552;SDS011;73833;51.014;16.950;2023-11-19T09:05:34;53.40;;;27.48;;
8552;SDS011;73833;51.014;16.950;2023-11-19T09:07:59;53.60;;;27.75;;
8552;SDS011;73833;51.014;16.950;2023-11-19T09:10:24;55.20;;;27.17;;
8552;SDS011;73833;51.014;16.950;2023-11-19T09:12:50;57.55;;;27.35;;
8552;SDS011;73833;51.014;16.950;2023-11-19T09:15:15;49.38;;;26.15;;
8552;SDS011;73833;51.014;16.950;2023-11-19T09:17:40;51.25;;;26.58;;
8552;SDS011;73833;51.014;16.950;2023-11-19T09:20:06;46.72;;;26.08;;
8552;SDS011;73833;51.014;16.950;2023-11-19T09:22:31;46.08;;;24.90;;
8552;SDS011;73833;51.014;16.950;2023-11-19T09:24:57;51.78;;;26.10;;
8552;SDS011;73833;51.014;16.950;2023-11-19T09:27:24;49.45;;;25.58;;
8552;SDS011;73833;51.014;16.950;2023-11-19T09:29:50;49.15;;;24.27;;
8552;SDS011;73833;51.014;16.950;2023-11-19T09:32:21;45.38;;;25.23;;
8552;SDS011;73833;51.014;16.950;2023-11-19T09:34:47;46.80;;;25.25;;
8552;SDS011;73833;51.014;16.950;2023-11-19T09:37:12;43.83;;;23.98;;
8552;SDS011;73833;51.014;16.950;2023-11-19T09:39:37;44.22;;;23.88;;
8552;SDS011;73833;51.014;16.950;2023-11-19T09:42:02;43.15;;;23.13;;
8552;SDS011;73833;51.014;16.950;2023-11-19T09:44:28;41.72;;;22.27;;
8552;SDS011;73833;51.014;16.950;2023-11-19T09:46:54;42.25;;;23.13;;
8552;SDS011;73833;51.014;16.950;2023-11-19T09:49:20;37.92;;;21.83;;
8552;SDS011;73833;51.014;16.950;2023-11-19T09:51:46;43.85;;;23.80;;
8552;SDS011;73833;51.014;16.950;2023-11-19T09:54:12;41.70;;;23.05;;
8552;SDS011;73833;51.014;16.950;2023-11-19T09:56:38;35.42;;;20.67;;
8552;SDS011;73833;51.014;16.950;2023-11-19T09:59:04;38.30;;;21.77;;
8552;SDS011;73833;51.014;16.950;2023-11-19T10:01:29;37.30;;;19.77;;
8552;SDS011;73833;51.014;16.950;2023-11-19T10:03:57;36.63;;;19.27;;
8552;SDS011;73833;51.014;16.950;2023-11-19T10:06:22;32.03;;;19.63;;
8552;SDS011;73833;51.014;16.950;2023-11-19T10:08:48;40.33;;;21.10;;
8552;SDS011;73833;51.014;16.950;2023-11-19T10:11:13;34.90;;;19.65;;
8552;SDS011;73833;51.014;16.950;2023-11-19T10:13:38;34.63;;;19.25;;
8552;SDS011;73833;51.014;16.950;2023-11-19T10:16:04;31.27;;;18.73;;
8552;SDS011;73833;51.014;16.950;2023-11-19T10:18:32;31.40;;;19.55;;
8552;SDS011;73833;51.014;16.950;2023-11-19T10:21:02;33.00;;;18.20;;
8552;SDS011;73833;51.014;16.950;2023-11-19T10:23:28;35.40;;;19.42;;
8552;SDS011;73833;51.014;16.950;2023-11-19T10:25:53;33.55;;;18.58;;
8552;SDS011;73833;51.014;16.950;2023-11-19T10:28:18;29.00;;;18.17;;
8552;SDS011;73833;51.014;16.950;2023-11-19T10:30:43;30.95;;;18.10;;
8552;SDS011;73833;51.014;16.950;2023-11-19T10:33:12;35.22;;;18.35;;
8552;SDS011;73833;51.014;16.950;2023-11-19T10:38:19;33.85;;;18.05;;
8552;SDS011;73833;51.014;16.950;2023-11-19T10:40:45;34.45;;;17.70;;
8552;SDS011;73833;51.014;16.950;2023-11-19T10:43:10;30.40;;;17.83;;
8552;SDS011;73833;51.014;16.950;2023-11-19T10:45:36;41.38;;;17.27;;
8552;SDS011;73833;51.014;16.950;2023-11-19T10:48:02;41.47;;;17.10;;
8552;SDS011;73833;51.014;16.950;2023-11-19T10:50:31;41.60;;;16.73;;
8552;SDS011;73833;51.014;16.950;2023-11-19T10:52:56;49.53;;;18.55;;
8552;SDS011;73833;51.014;16.950;2023-11-19T10:55:28;45.08;;;17.15;;
8552;SDS011;73833;51.014;16.950;2023-11-19T10:57:58;59.95;;;18.52;;
8552;SDS011;73833;51.014;16.950;2023-11-19T11:00:23;50.67;;;16.33;;
8552;SDS011;73833;51.014;16.950;2023-11-19T11:02:50;49.78;;;17.67;;
8552;SDS011;73833;51.014;16.950;2023-11-19T11:05:16;50.55;;;17.20;;
8552;SDS011;73833;51.014;16.950;2023-11-19T11:07:41;56.50;;;16.70;;
8552;SDS011;73833;51.014;16.950;2023-11-19T11:10:09;46.17;;;17.00;;
8552;SDS011;73833;51.014;16.950;2023-11-19T11:12:36;50.92;;;18.02;;
8552;SDS011;73833;51.014;16.950;2023-11-19T11:15:01;57.30;;;17.25;;
8552;SDS011;73833;51.014;16.950;2023-11-19T11:17:27;52.72;;;16.08;;
8552;SDS011;73833;51.014;16.950;2023-11-19T11:19:53;39.70;;;15.15;;
8552;SDS011;73833;51.014;16.950;2023-11-19T11:22:18;42.78;;;15.65;;
8552;SDS011;73833;51.014;16.950;2023-11-19T11:24:54;38.80;;;15.27;;
8552;SDS011;73833;51.014;16.950;2023-11-19T11:27:37;39.65;;;15.15;;
8552;SDS011;73833;51.014;16.950;2023-11-19T11:32:35;41.30;;;14.75;;
8552;SDS011;73833;51.014;16.950;2023-11-19T11:35:12;42.00;;;15.18;;
8552;SDS011;73833;51.014;16.950;2023-11-19T11:37:49;50.28;;;16.27;;
8552;SDS011;73833;51.014;16.950;2023-11-19T11:40:16;44.90;;;14.77;;
8552;SDS011;73833;51.014;16.950;2023-11-19T11:42:43;43.65;;;14.00;;
8552;SDS011;73833;51.014;16.950;2023-11-19T11:45:09;51.53;;;15.20;;
8552;SDS011;73833;51.014;16.950;2023-11-19T11:53:12;36.90;;;14.18;;
8552;SDS011;73833;51.014;16.950;2023-11-19T11:55:23;48.00;;;15.05;;
8552;SDS011;73833;51.014;16.950;2023-11-19T11:57:48;38.85;;;13.95;;
8552;SDS011;73833;51.014;16.950;2023-11-19T12:00:21;43.33;;;14.57;;
8552;SDS011;73833;51.014;16.950;2023-11-19T12:02:46;49.65;;;14.95;;
8552;SDS011;73833;51.014;16.950;2023-11-19T12:05:11;45.13;;;15.23;;
8552;SDS011;73833;51.014;16.950;2023-11-19T12:07:38;39.13;;;14.68;;
8552;SDS011;73833;51.014;16.950;2023-11-19T12:10:07;44.15;;;13.73;;
8552;SDS011;73833;51.014;16.950;2023-11-19T12:12:33;45.05;;;14.75;;
8552;SDS011;73833;51.014;16.950;2023-11-19T12:14:59;43.83;;;14.95;;
8552;SDS011;73833;51.014;16.950;2023-11-19T12:20:02;32.72;;;12.85;;
8552;SDS011;73833;51.014;16.950;2023-11-19T12:22:28;39.05;;;14.07;;
8552;SDS011;73833;51.014;16.950;2023-11-19T12:24:54;38.65;;;13.55;;
8552;SDS011;73833;51.014;16.950;2023-11-19T12:27:19;33.65;;;13.88;;
8552;SDS011;73833;51.014;16.950;2023-11-19T12:29:47;36.20;;;12.48;;
8552;SDS011;73833;51.014;16.950;2023-11-19T12:32:12;47.92;;;13.93;;
8552;SDS011;73833;51.014;16.950;2023-11-19T12:34:38;40.90;;;12.63;;
8552;SDS011;73833;51.014;16.950;2023-11-19T12:37:03;33.90;;;12.52;;
8552;SDS011;73833;51.014;16.950;2023-11-19T12:39:32;39.33;;;13.45;;
8552;SDS011;73833;51.014;16.950;2023-11-19T12:41:57;39.58;;;12.55;;
8552;SDS011;73833;51.014;16.950;2023-11-19T12:44:24;37.05;;;11.95;;
8552;SDS011;73833;51.014;16.950;2023-11-19T12:49:54;36.35;;;12.95;;
8552;SDS011;73833;51.014;16.950;2023-11-19T12:52:20;36.67;;;11.32;;
8552;SDS011;73833;51.014;16.950;2023-11-19T12:54:45;40.13;;;12.48;;
8552;SDS011;73833;51.014;16.950;2023-11-19T12:57:10;31.00;;;11.30;;
8552;SDS011;73833;51.014;16.950;2023-11-19T12:59:35;27.60;;;10.98;;
8552;SDS011;73833;51.014;16.950;2023-11-19T13:02:00;34.88;;;11.27;;
8552;SDS011;73833;51.014;16.950;2023-11-19T13:04:30;32.88;;;10.93;;
8552;SDS011;73833;51.014;16.950;2023-11-19T13:06:56;32.80;;;11.45;;
8552;SDS011;73833;51.014;16.950;2023-11-19T13:09:31;29.65;;;10.75;;
8552;SDS011;73833;51.014;16.950;2023-11-19T13:11:56;35.17;;;10.65;;
8552;SDS011;73833;51.014;16.950;2023-11-19T13:14:22;24.58;;;11.05;;
8552;SDS011;73833;51.014;16.950;2023-11-19T13:16:48;26.70;;;10.63;;
8552;SDS011;73833;51.014;16.950;2023-11-19T13:19:14;29.23;;;11.05;;
8552;SDS011;73833;51.014;16.950;2023-11-19T13:21:41;27.40;;;10.55;;
8552;SDS011;73833;51.014;16.950;2023-11-19T13:24:07;30.00;;;10.25;;
8552;SDS011;73833;51.014;16.950;2023-11-19T13:26:32;23.35;;;8.68;;
8552;SDS011;73833;51.014;16.950;2023-11-19T13:28:57;26.95;;;10.60;;
8552;SDS011;73833;51.014;16.950;2023-11-19T13:31:22;20.50;;;8.85;;
8552;SDS011;73833;51.014;16.950;2023-11-19T13:33:48;20.60;;;9.57;;
8552;SDS011;73833;51.014;16.950;2023-11-19T13:36:13;22.25;;;8.70;;
8552;SDS011;73833;51.014;16.950;2023-11-19T13:38:38;22.40;;;8.95;;
8552;SDS011;73833;51.014;16.950;2023-11-19T13:41:05;20.35;;;8.63;;
8552;SDS011;73833;51.014;16.950;2023-11-19T13:43:31;23.90;;;9.70;;
8552;SDS011;73833;51.014;16.950;2023-11-19T13:45:56;22.73;;;8.98;;
8552;SDS011;73833;51.014;16.950;2023-11-19T13:48:23;20.63;;;9.25;;
8552;SDS011;73833;51.014;16.950;2023-11-19T13:50:48;21.48;;;8.05;;
8552;SDS011;73833;51.014;16.950;2023-11-19T13:53:13;24.85;;;8.43;;
8552;SDS011;73833;51.014;16.950;2023-11-19T13:55:39;15.63;;;8.45;;
8552;SDS011;73833;51.014;16.950;2023-11-19T13:58:04;18.95;;;7.78;;
8552;SDS011;73833;51.014;16.950;2023-11-19T14:00:29;16.50;;;7.75;;
8552;SDS011;73833;51.014;16.950;2023-11-19T14:02:54;14.02;;;7.45;;
8552;SDS011;73833;51.014;16.950;2023-11-19T14:05:20;14.52;;;7.07;;
8552;SDS011;73833;51.014;16.950;2023-11-19T14:07:45;19.90;;;7.45;;
8552;SDS011;73833;51.014;16.950;2023-11-19T14:10:13;15.10;;;7.07;;
8552;SDS011;73833;51.014;16.950;2023-11-19T14:12:38;20.92;;;7.95;;
8552;SDS011;73833;51.014;16.950;2023-11-19T14:15:05;13.77;;;7.25;;
8552;SDS011;73833;51.014;16.950;2023-11-19T14:17:34;11.13;;;6.68;;
8552;SDS011;73833;51.014;16.950;2023-11-19T14:19:59;14.15;;;6.85;;
8552;SDS011;73833;51.014;16.950;2023-11-19T14:22:24;13.82;;;7.10;;
8552;SDS011;73833;51.014;16.950;2023-11-19T14:24:50;11.02;;;7.18;;
8552;SDS011;73833;51.014;16.950;2023-11-19T14:27:15;14.05;;;7.38;;
8552;SDS011;73833;51.014;16.950;2023-11-19T14:29:42;12.00;;;6.53;;
8552;SDS011;73833;51.014;16.950;2023-11-19T14:32:07;12.68;;;6.50;;
8552;SDS011;73833;51.014;16.950;2023-11-19T14:34:32;19.15;;;7.28;;
8552;SDS011;73833;51.014;16.950;2023-11-19T14:36:58;12.98;;;6.78;;
8552;SDS011;73833;51.014;16.950;2023-11-19T14:39:23;14.48;;;6.00;;